This is the latest recevied weather packets stored in our database for station/object KE8URB. If no packets are shown the sender has not sent any weather packets the latest 10 day(s).
| Time | Temp. | Humidity | Pressure | Rain* | Wind** | Luminosity | Snow |
|---|---|---|---|---|---|---|---|
| 1787424574 | 20.56° C | 99% | 1012.2 hPa | 0 mm | - | 14 W/m² | - |
| 1787424270 | 20.56° C | 99% | 1011.9 hPa | 0 mm | - | 12 W/m² | - |
| 1787423965 | 20.56° C | 99% | 1011.8 hPa | 7.87 mm | - | 13 W/m² | - |
| 1787423662 | 20.56° C | 98% | 1012.2 hPa | 45.47 mm | - | 16 W/m² | - |
| 1787423358 | 21.67° C | 95% | 1011.8 hPa | 44.45 mm | - | 19 W/m² | - |
| 1787423055 | 25.56° C | 86% | 1012 hPa | 0 mm | - | 3 W/m² | - |
| 1787422754 | 25.56° C | 82% | 1011.2 hPa | 0 mm | - | 32 W/m² | - |
| 1787422451 | 25.56° C | 82% | 1011.7 hPa | 0 mm | - | 59 W/m² | - |
| 1787422146 | 25.56° C | 81% | 1011.8 hPa | 0 mm | - | 95 W/m² | - |
| 1787421843 | 25.56° C | 82% | 1011.8 hPa | 0 mm | - | 121 W/m² | - |
| 1787421543 | 25.56° C | 80% | 1012.1 hPa | 0 mm | - | 89 W/m² | - |
| 1787421239 | 26.11° C | 79% | 1012.1 hPa | 0 mm | - | 101 W/m² | - |
| 1787420939 | 26.67° C | 77% | 1012 hPa | 0 mm | - | 166 W/m² | - |
| 1787420634 | 26.67° C | 80% | 1012.2 hPa | 0 mm | - | 179 W/m² | - |
| 1787420330 | 26.11° C | 81% | 1012.3 hPa | 0 mm | - | 147 W/m² | - |
| 1787420027 | 26.11° C | 84% | 1012.3 hPa | 0 mm | - | 122 W/m² | - |
| 1787419723 | 25.56° C | 83% | 1012.7 hPa | 0 mm | - | 159 W/m² | - |
| 1787419418 | 25° C | 85% | 1012.8 hPa | 0 mm | - | 156 W/m² | - |
| 1787419113 | 24.44° C | 87% | 1012.8 hPa | 0 mm | - | 149 W/m² | - |
| 1787418809 | 25° C | 83% | 1012.8 hPa | 0 mm | - | 81 W/m² | - |
| 1787418505 | 25.56° C | 81% | 1013 hPa | 0 mm | - | 65 W/m² | - |
| 1787418201 | 25.56° C | 80% | 1012.9 hPa | 0 mm | - | 80 W/m² | - |
| 1787417897 | 26.11° C | 81% | 1012.9 hPa | 0 mm | - | 115 W/m² | - |
| 1787417593 | 25.56° C | 80% | 1013.2 hPa | 0 mm | - | 164 W/m² | - |
| 1787417292 | 26.11° C | 80% | 1013 hPa | 0 mm | - | 112 W/m² | - |
* Rain latest hour (hover to see other rain measurements)
** Current wind speed in m/s (hover to see current wind gust speed)